Time;durP1;ratioP1;P1;durP2;ratioP2;P2;SDS_P1;SDS_P2;PMS_P1;PMS_P2;Temp;Humidity;BMP_temperature;BMP_pressure;BME280_temperature;BME280_humidity;BME280_pressure;Samples;Min_cycle;Max_cycle;Signal;HPM_P1;HPM_P2
2024/04/03 00:02:06;;;;;;;3.20;1.30;;;13.90;73.10;;;;;;5018939;28;20678;-60
2024/04/03 00:04:35;;;;;;;2.97;1.07;;;13.90;72.90;;;;;;5032650;28;20199;-63
2024/04/03 00:07:01;;;;;;;3.70;1.33;;;13.90;72.80;;;;;;5014106;28;20649;-60
2024/04/03 00:09:29;;;;;;;5.17;1.47;;;13.90;72.70;;;;;;5038366;28;20230;-60
2024/04/03 00:11:56;;;;;;;3.43;1.33;;;13.80;72.80;;;;;;5007990;28;20199;-60
2024/04/03 00:14:22;;;;;;;4.53;1.47;;;13.80;73.20;;;;;;5022173;28;20214;-60
2024/04/03 00:16:49;;;;;;;3.80;1.20;;;13.70;73.60;;;;;;5030609;28;20211;-60
2024/04/03 00:19:15;;;;;;;3.17;1.50;;;13.70;73.70;;;;;;5034689;28;20219;-60
2024/04/03 00:21:41;;;;;;;2.73;1.10;;;13.60;73.90;;;;;;5037505;28;20300;-60
2024/04/03 00:24:09;;;;;;;3.97;1.50;;;13.60;74.00;;;;;;5021514;28;20204;-60
2024/04/03 00:26:35;;;;;;;2.80;1.10;;;13.50;74.00;;;;;;5033790;28;20616;-60
2024/04/03 00:29:01;;;;;;;3.30;1.53;;;13.50;73.80;;;;;;5040478;28;20203;-60
2024/04/03 00:31:28;;;;;;;3.83;2.03;;;13.40;73.50;;;;;;5026661;28;20207;-60
2024/04/03 00:33:54;;;;;;;8.73;1.53;;;13.40;73.60;;;;;;5039485;28;20238;-59
2024/04/03 00:36:20;;;;;;;4.87;1.30;;;13.40;73.60;;;;;;5039748;28;20206;-60
2024/04/03 00:38:46;;;;;;;4.70;1.17;;;13.30;73.80;;;;;;5035467;28;20236;-60
2024/04/03 00:41:13;;;;;;;4.03;1.37;;;13.20;74.30;;;;;;5011481;28;20227;-60
2024/04/03 00:43:40;;;;;;;6.93;1.60;;;13.20;73.60;;;;;;5041028;28;20755;-60
2024/04/03 00:46:09;;;;;;;3.00;1.03;;;13.20;74.20;;;;;;5022502;28;20233;-60
2024/04/03 00:48:35;;;;;;;7.60;1.00;;;13.00;74.90;;;;;;5041271;28;20221;-60
2024/04/03 00:51:02;;;;;;;2.40;1.20;;;12.90;75.30;;;;;;5055255;28;20244;-60
2024/04/03 00:53:31;;;;;;;9.07;1.77;;;12.70;75.90;;;;;;5023310;28;20537;-60
2024/04/03 00:55:58;;;;;;;4.20;1.00;;;12.60;76.40;;;;;;5038123;28;20213;-60
2024/04/03 00:58:24;;;;;;;4.17;1.17;;;12.50;76.80;;;;;;5035742;28;20218;-60
2024/04/03 01:00:50;;;;;;;2.93;1.07;;;12.50;77.30;;;;;;5019404;28;20785;-60
2024/04/03 01:03:17;;;;;;;3.20;0.70;;;12.40;78.40;;;;;;5031487;28;20635;-59
2024/04/03 01:05:43;;;;;;;4.67;1.00;;;12.30;79.00;;;;;;5016918;28;20208;-60
2024/04/03 01:08:10;;;;;;;2.90;1.33;;;12.20;79.50;;;;;;5041916;28;20284;-60
2024/04/03 01:10:36;;;;;;;2.47;1.10;;;12.10;79.70;;;;;;5041884;28;20202;-60
2024/04/03 01:13:03;;;;;;;4.80;1.60;;;12.10;80.10;;;;;;5041937;28;20722;-60
2024/04/03 01:15:30;;;;;;;5.30;1.30;;;12.00;80.50;;;;;;5017262;28;20306;-60
2024/04/03 01:17:57;;;;;;;4.47;1.67;;;11.90;81.20;;;;;;5022002;28;20239;-60
2024/04/03 01:20:24;;;;;;;9.00;1.00;;;11.90;82.10;;;;;;5005091;28;20236;-60
2024/04/03 01:22:51;;;;;;;4.93;1.30;;;11.90;82.70;;;;;;5034431;28;20684;-60
2024/04/03 01:25:19;;;;;;;3.73;1.20;;;11.80;82.90;;;;;;5037322;28;20207;-59
2024/04/03 01:27:46;;;;;;;3.40;1.30;;;11.80;83.20;;;;;;5020173;28;20522;-60
2024/04/03 01:30:14;;;;;;;4.07;1.10;;;11.70;83.30;;;;;;5039715;28;20263;-60
2024/04/03 01:32:42;;;;;;;2.47;1.13;;;11.70;83.10;;;;;;5006797;28;20325;-60
2024/04/03 01:35:09;;;;;;;3.60;1.50;;;11.70;83.20;;;;;;5021088;28;20688;-60
2024/04/03 01:37:35;;;;;;;3.40;1.00;;;11.60;83.40;;;;;;5029146;28;20223;-59
2024/04/03 01:40:02;;;;;;;6.27;1.40;;;11.60;84.00;;;;;;5035251;28;20206;-60
2024/04/03 01:42:30;;;;;;;3.10;1.30;;;11.60;84.50;;;;;;5003170;28;20215;-60
2024/04/03 01:44:57;;;;;;;2.87;1.20;;;11.60;85.00;;;;;;5024173;28;20231;-60
2024/04/03 01:47:25;;;;;;;3.40;1.30;;;11.70;85.40;;;;;;5037116;28;20215;-60
2024/04/03 01:49:53;;;;;;;4.87;1.73;;;11.70;85.60;;;;;;5002687;28;20228;-60
2024/04/03 01:52:21;;;;;;;6.60;1.50;;;11.70;85.60;;;;;;5039933;28;20237;-60
2024/04/03 01:54:48;;;;;;;5.57;1.00;;;11.70;85.60;;;;;;5007972;28;20210;-59
2024/04/03 01:57:15;;;;;;;3.33;1.10;;;11.70;85.60;;;;;;5047031;28;20606;-60
2024/04/03 01:59:45;;;;;;;2.03;1.17;;;11.70;85.90;;;;;;5024121;28;20203;-60
2024/04/03 02:02:12;;;;;;;1.80;0.90;;;11.70;86.30;;;;;;5036713;28;20245;-60
2024/04/03 02:04:39;;;;;;;3.83;1.40;;;11.70;86.70;;;;;;5023911;28;20227;-60
2024/04/03 02:07:07;;;;;;;4.83;1.00;;;11.70;87.20;;;;;;5007149;28;20199;-60
2024/04/03 02:09:35;;;;;;;3.20;1.03;;;11.70;87.60;;;;;;5040517;28;20206;-60
2024/04/03 02:12:06;;;;;;;2.60;1.20;;;11.70;88.00;;;;;;5050524;28;20230;-61
2024/04/03 02:14:32;;;;;;;6.90;1.37;;;11.70;88.30;;;;;;5038204;28;20207;-60
2024/04/03 02:16:59;;;;;;;2.80;1.73;;;11.70;88.10;;;;;;5018929;28;20662;-60
2024/04/03 02:19:25;;;;;;;6.80;1.67;;;11.70;88.30;;;;;;5026469;28;20226;-60
2024/04/03 02:21:53;;;;;;;6.10;1.23;;;11.60;88.40;;;;;;5052384;28;20314;-60
2024/04/03 02:24:20;;;;;;;3.93;1.53;;;11.60;88.50;;;;;;5029447;28;20647;-60
2024/04/03 02:26:47;;;;;;;5.13;1.17;;;11.60;88.40;;;;;;5007470;28;20247;-60
2024/04/03 02:29:14;;;;;;;12.50;1.83;;;11.70;88.70;;;;;;5005269;28;20207;-60
2024/04/03 02:31:41;;;;;;;5.53;1.60;;;11.60;88.90;;;;;;5020858;28;20722;-61
2024/04/03 02:34:08;;;;;;;4.30;1.20;;;11.60;88.80;;;;;;5047428;28;20203;-61
2024/04/03 02:36:34;;;;;;;4.63;1.30;;;11.70;88.50;;;;;;5015805;28;20208;-60
2024/04/03 02:39:01;;;;;;;4.60;1.23;;;11.60;88.50;;;;;;5007102;28;20215;-60
2024/04/03 02:41:27;;;;;;;7.80;1.60;;;11.60;88.50;;;;;;5034376;28;20216;-60
2024/04/03 02:43:54;;;;;;;4.40;1.30;;;11.60;88.50;;;;;;5025515;28;20495;-60
2024/04/03 02:46:21;;;;;;;7.27;1.40;;;11.60;88.40;;;;;;5000269;28;20209;-60
2024/04/03 02:48:48;;;;;;;3.97;1.20;;;11.60;88.50;;;;;;5039941;28;20207;-60
2024/04/03 02:51:14;;;;;;;3.67;1.23;;;11.60;88.80;;;;;;5037498;28;20522;-60
2024/04/03 02:53:40;;;;;;;4.77;1.30;;;11.70;89.00;;;;;;5044105;28;20206;-59
2024/04/03 02:56:08;;;;;;;4.20;1.10;;;11.70;88.90;;;;;;5066159;28;20211;-60
2024/04/03 02:58:36;;;;;;;2.50;1.10;;;11.70;88.90;;;;;;5033052;28;20590;-60
2024/04/03 03:01:10;;;;;;;5.77;1.10;;;11.70;89.10;;;;;;5021326;28;20271;-60
2024/04/03 03:03:37;;;;;;;3.17;1.37;;;11.70;89.40;;;;;;5038283;28;20221;-60
2024/04/03 03:06:05;;;;;;;2.10;1.30;;;11.70;89.00;;;;;;5038840;28;20214;-60
2024/04/03 03:08:32;;;;;;;3.70;1.67;;;11.80;88.90;;;;;;5002876;28;20694;-60
2024/04/03 03:11:02;;;;;;;8.40;1.77;;;11.80;88.60;;;;;;5019808;28;20564;-60
2024/04/03 03:13:29;;;;;;;3.53;1.23;;;11.80;88.20;;;;;;5021665;28;20211;-60
2024/04/03 03:15:59;;;;;;;1.97;1.00;;;11.80;88.20;;;;;;5021818;28;20243;-60
2024/04/03 03:18:30;;;;;;;6.10;1.27;;;11.80;88.20;;;;;;5013974;28;20217;-60
2024/04/03 03:20:57;;;;;;;1.73;0.93;;;11.80;88.60;;;;;;5005215;28;20242;-60
2024/04/03 03:23:23;;;;;;;9.13;1.30;;;11.90;88.60;;;;;;5035238;28;20198;-60
2024/04/03 03:25:54;;;;;;;2.60;1.43;;;11.90;88.40;;;;;;5042038;28;20203;-60
2024/04/03 03:28:21;;;;;;;5.43;1.37;;;11.90;88.20;;;;;;5037546;28;20216;-60
2024/04/03 03:30:51;;;;;;;1.93;1.13;;;12.00;88.00;;;;;;5024741;28;20200;-60
2024/04/03 03:33:18;;;;;;;2.73;1.20;;;12.00;87.90;;;;;;5030948;28;20199;-60
2024/04/03 03:35:54;;;;;;;4.50;1.20;;;12.00;88.30;;;;;;5032101;28;20674;-60
2024/04/03 03:38:21;;;;;;;2.30;1.10;;;12.10;88.50;;;;;;5042005;28;20549;-60
2024/04/03 03:40:49;;;;;;;3.20;1.63;;;12.10;88.20;;;;;;5030919;28;20238;-60
2024/04/03 03:43:16;;;;;;;5.63;1.40;;;12.20;88.20;;;;;;5020750;28;20212;-60
2024/04/03 03:45:50;;;;;;;2.53;1.07;;;12.20;88.50;;;;;;5032774;28;20528;-60
2024/04/03 03:48:20;;;;;;;2.53;1.23;;;12.20;89.00;;;;;;5030193;28;20210;-60
2024/04/03 03:53:34;;;;;;;4.77;1.23;;;12.30;89.70;;;;;;5022794;28;20222;-60
2024/04/03 03:56:09;;;;;;;2.60;1.27;;;12.30;90.00;;;;;;5034233;28;20600;-59
2024/04/03 03:58:36;;;;;;;6.87;1.50;;;12.30;90.10;;;;;;5028438;28;20210;-59
2024/04/03 04:01:07;;;;;;;1.83;1.23;;;12.30;90.10;;;;;;5037916;28;20262;-60
2024/04/03 04:03:34;;;;;;;8.67;1.43;;;12.40;90.50;;;;;;5003098;28;20301;-60
2024/04/03 04:06:02;;;;;;;1.13;1.03;;;12.40;90.30;;;;;;5003169;28;20211;-60
2024/04/03 04:08:29;;;;;;;4.33;1.10;;;12.40;90.30;;;;;;5020960;28;20591;-61
2024/04/03 04:10:56;;;;;;;4.60;1.37;;;12.40;90.40;;;;;;5038785;28;20524;-60
2024/04/03 04:13:22;;;;;;;2.80;1.00;;;12.40;90.40;;;;;;5055746;28;20244;-60
2024/04/03 04:15:50;;;;;;;4.57;1.30;;;12.40;90.30;;;;;;5031542;28;20210;-60
2024/04/03 04:18:16;;;;;;;4.37;1.60;;;12.40;90.20;;;;;;5017983;28;21811;-60
2024/04/03 04:20:43;;;;;;;3.63;1.37;;;12.40;90.00;;;;;;5023202;28;20215;-60
2024/04/03 04:23:09;;;;;;;3.03;1.23;;;12.50;89.50;;;;;;5042456;28;20256;-60
2024/04/03 04:25:35;;;;;;;3.57;1.50;;;12.50;88.90;;;;;;5025728;28;20552;-60
2024/04/03 04:28:01;;;;;;;3.80;1.50;;;12.50;88.50;;;;;;5061778;28;20221;-60
2024/04/03 04:30:28;;;;;;;2.93;1.27;;;12.50;88.30;;;;;;5037016;28;20218;-59
2024/04/03 04:32:54;;;;;;;3.00;1.23;;;12.50;88.00;;;;;;5029894;28;20238;-60
2024/04/03 04:35:21;;;;;;;7.47;1.50;;;12.50;87.80;;;;;;5006727;28;20245;-60
2024/04/03 04:37:48;;;;;;;1.20;0.90;;;12.50;87.70;;;;;;5044028;28;20199;-60
2024/04/03 04:40:15;;;;;;;7.60;2.07;;;12.50;87.80;;;;;;5037696;28;20290;-60
2024/04/03 04:42:43;;;;;;;2.43;1.07;;;12.50;87.70;;;;;;5034741;28;20230;-60
2024/04/03 04:45:09;;;;;;;7.73;1.60;;;12.50;87.60;;;;;;5039206;28;20639;-60
2024/04/03 04:47:36;;;;;;;7.33;1.70;;;12.50;87.70;;;;;;5015634;28;20242;-60
2024/04/03 04:50:02;;;;;;;1.40;1.30;;;12.50;87.80;;;;;;5034743;28;20227;-60
2024/04/03 04:52:29;;;;;;;10.20;2.60;;;12.50;88.10;;;;;;5034297;28;20213;-60
2024/04/03 04:54:55;;;;;;;4.60;1.47;;;12.50;88.30;;;;;;5035495;28;20198;-60
2024/04/03 04:57:21;;;;;;;4.87;1.80;;;12.50;88.30;;;;;;5026779;28;20299;-60
2024/04/03 04:59:49;;;;;;;6.73;1.67;;;12.50;87.80;;;;;;5015265;28;20237;-60
2024/04/03 05:02:16;;;;;;;7.13;1.90;;;12.50;86.90;;;;;;5033258;28;20238;-59
2024/04/03 05:04:43;;;;;;;5.33;1.87;;;12.50;86.20;;;;;;5035541;28;20210;-60
2024/04/03 05:07:10;;;;;;;5.93;1.50;;;12.50;86.00;;;;;;5036182;28;20673;-60
2024/04/03 05:09:37;;;;;;;3.23;1.33;;;12.50;86.00;;;;;;5036578;28;20202;-60
2024/04/03 05:12:04;;;;;;;4.73;1.70;;;12.50;86.20;;;;;;5019830;28;20199;-59
2024/04/03 05:14:31;;;;;;;3.63;1.83;;;12.60;86.60;;;;;;5007728;28;20211;-60
2024/04/03 05:16:57;;;;;;;6.30;1.67;;;12.60;86.90;;;;;;5039233;28;20515;-61
2024/04/03 05:19:23;;;;;;;7.40;1.93;;;12.60;87.10;;;;;;5049560;28;20639;-60
2024/04/03 05:21:49;;;;;;;4.73;1.47;;;12.70;87.00;;;;;;5034883;28;20208;-60
2024/04/03 05:24:16;;;;;;;7.43;1.50;;;12.70;87.20;;;;;;5025783;28;20195;-60
2024/04/03 05:26:43;;;;;;;3.33;1.40;;;12.70;87.50;;;;;;5052899;28;20199;-61
2024/04/03 05:29:11;;;;;;;4.27;1.40;;;12.70;87.90;;;;;;5023333;28;20597;-60
2024/04/03 05:31:38;;;;;;;6.07;1.70;;;12.70;88.30;;;;;;5037785;28;20257;-61
2024/04/03 05:34:07;;;;;;;7.60;1.83;;;12.70;88.60;;;;;;5019739;28;20207;-60
2024/04/03 05:36:34;;;;;;;4.10;1.30;;;12.70;88.90;;;;;;5041077;28;20588;-60
2024/04/03 05:39:02;;;;;;;9.03;1.73;;;12.70;89.40;;;;;;5013089;28;20269;-60
2024/04/03 05:41:31;;;;;;;1.80;1.40;;;12.70;89.50;;;;;;5021974;28;20221;-60
2024/04/03 05:43:58;;;;;;;6.27;1.47;;;12.70;89.80;;;;;;5020734;28;20195;-61
2024/04/03 05:46:26;;;;;;;3.20;1.57;;;12.70;90.10;;;;;;5034508;28;20211;-60
2024/04/03 05:48:54;;;;;;;4.80;2.03;;;12.70;90.30;;;;;;5011395;28;20195;-60
2024/04/03 05:51:20;;;;;;;4.00;2.07;;;12.70;90.60;;;;;;5022498;28;20233;-60
2024/04/03 05:53:46;;;;;;;3.20;1.30;;;12.70;90.80;;;;;;5033711;28;20212;-60
2024/04/03 05:56:13;;;;;;;6.30;1.33;;;12.70;91.00;;;;;;5033039;28;20636;-60
2024/04/03 05:58:40;;;;;;;3.53;1.67;;;12.70;91.10;;;;;;5023457;28;20270;-60
2024/04/03 06:01:07;;;;;;;5.33;1.63;;;12.70;91.10;;;;;;5029420;28;20237;-60
2024/04/03 06:03:33;;;;;;;4.50;1.67;;;12.80;91.20;;;;;;5023203;28;20216;-61
2024/04/03 06:06:01;;;;;;;3.07;1.60;;;12.80;91.20;;;;;;5013028;28;20221;-60
2024/04/03 06:08:27;;;;;;;4.13;1.90;;;12.80;91.20;;;;;;5008911;28;20203;-60
2024/04/03 06:10:53;;;;;;;5.63;1.73;;;12.90;91.20;;;;;;5038366;28;20650;-60
2024/04/03 06:13:22;;;;;;;4.00;2.40;;;12.90;91.10;;;;;;5025348;28;20617;-60
2024/04/03 06:15:49;;;;;;;5.10;1.50;;;13.00;91.10;;;;;;5020771;28;20639;-60
2024/04/03 06:18:15;;;;;;;3.13;1.33;;;13.00;91.00;;;;;;5019801;28;20586;-60
2024/04/03 06:20:42;;;;;;;6.00;1.50;;;13.10;91.00;;;;;;5021027;28;20223;-60
2024/04/03 06:23:12;;;;;;;3.40;1.53;;;13.10;91.00;;;;;;5021881;28;20214;-61
2024/04/03 06:25:38;;;;;;;4.60;1.90;;;13.20;91.00;;;;;;5019336;28;20546;-61
2024/04/03 06:28:05;;;;;;;6.20;1.90;;;13.30;90.90;;;;;;5022630;28;20196;-60
2024/04/03 06:30:32;;;;;;;4.70;2.27;;;13.30;90.80;;;;;;5034828;28;20198;-60
2024/04/03 06:33:00;;;;;;;4.00;2.17;;;13.30;90.60;;;;;;5040767;28;20222;-60
2024/04/03 06:35:27;;;;;;;3.37;1.47;;;13.40;90.60;;;;;;5037357;28;20206;-60
2024/04/03 06:37:54;;;;;;;6.77;2.00;;;13.40;90.50;;;;;;5063043;28;20301;-60
2024/04/03 06:40:21;;;;;;;3.73;1.80;;;13.40;90.50;;;;;;5039743;28;20206;-60
2024/04/03 06:42:47;;;;;;;6.30;2.10;;;13.50;90.60;;;;;;5023606;28;20203;-60
2024/04/03 06:45:14;;;;;;;5.37;2.10;;;13.50;90.70;;;;;;5043300;28;20198;-61
2024/04/03 06:47:40;;;;;;;5.77;2.30;;;13.50;90.80;;;;;;5022006;28;20207;-60
2024/04/03 06:50:07;;;;;;;2.23;1.60;;;13.50;90.80;;;;;;5036645;28;20195;-60
2024/04/03 06:52:34;;;;;;;5.13;1.80;;;13.60;90.70;;;;;;5019129;28;20219;-59
2024/04/03 06:55:01;;;;;;;4.40;2.43;;;13.70;90.90;;;;;;5020190;28;20205;-59
2024/04/03 06:57:28;;;;;;;6.23;1.57;;;13.70;91.00;;;;;;5024021;28;20229;-60
2024/04/03 06:59:55;;;;;;;4.30;1.53;;;13.70;91.00;;;;;;5010713;28;20243;-59
2024/04/03 07:02:22;;;;;;;5.47;1.90;;;13.80;90.80;;;;;;5023641;28;20236;-60
2024/04/03 07:04:48;;;;;;;3.67;1.57;;;13.90;90.70;;;;;;5068129;28;20195;-60
2024/04/03 07:07:15;;;;;;;5.83;2.27;;;13.90;90.70;;;;;;5037285;28;20205;-60
2024/04/03 07:09:42;;;;;;;4.87;1.67;;;13.90;90.80;;;;;;5022316;28;20617;-60
2024/04/03 07:12:09;;;;;;;4.07;1.70;;;13.90;91.00;;;;;;5032339;28;20203;-59
2024/04/03 07:14:37;;;;;;;5.53;1.87;;;14.00;91.30;;;;;;5021361;28;20551;-60
2024/04/03 07:17:03;;;;;;;4.60;1.50;;;14.00;91.10;;;;;;5042985;28;20233;-60
2024/04/03 07:19:30;;;;;;;5.70;1.60;;;14.00;91.20;;;;;;5021726;28;20218;-60
2024/04/03 07:21:57;;;;;;;2.80;1.50;;;14.10;91.30;;;;;;5036692;28;20226;-60
2024/04/03 07:24:23;;;;;;;4.77;1.63;;;14.10;91.30;;;;;;5039137;28;20203;-60
2024/04/03 07:26:50;;;;;;;6.53;1.60;;;14.10;91.40;;;;;;5038490;28;20227;-59
2024/04/03 07:29:18;;;;;;;5.40;1.40;;;14.20;91.50;;;;;;5039637;28;20203;-60
2024/04/03 07:31:45;;;;;;;4.30;2.33;;;14.20;91.40;;;;;;5018447;28;20204;-60
2024/04/03 07:34:12;;;;;;;6.40;1.53;;;14.20;91.30;;;;;;5037982;28;20225;-60
2024/04/03 07:36:43;;;;;;;4.73;2.10;;;14.30;91.40;;;;;;5002263;28;20203;-60
2024/04/03 07:39:11;;;;;;;5.77;1.60;;;14.30;91.30;;;;;;5015902;28;20685;-60
2024/04/03 07:41:39;;;;;;;3.10;1.40;;;14.40;91.20;;;;;;5034722;28;20231;-60
2024/04/03 07:44:07;;;;;;;3.23;1.50;;;14.50;91.00;;;;;;5021717;28;20211;-60
2024/04/03 07:46:34;;;;;;;8.70;1.60;;;14.70;90.70;;;;;;5030386;28;20204;-60
2024/04/03 07:49:01;;;;;;;4.97;1.30;;;14.80;90.50;;;;;;5033087;28;20210;-59
2024/04/03 07:51:28;;;;;;;8.83;1.90;;;14.90;90.30;;;;;;5018761;28;20222;-59
2024/04/03 07:53:55;;;;;;;10.40;1.63;;;15.00;90.20;;;;;;5037491;28;20212;-60
2024/04/03 07:56:22;;;;;;;3.93;1.80;;;15.10;89.80;;;;;;5018692;28;20565;-60
2024/04/03 07:58:50;;;;;;;8.00;1.90;;;15.20;89.40;;;;;;5037495;28;20764;-60
2024/04/03 08:01:18;;;;;;;8.60;1.63;;;15.20;89.10;;;;;;5022964;28;20235;-59
2024/04/03 08:03:46;;;;;;;3.73;1.77;;;15.30;88.50;;;;;;5053049;28;20213;-59
2024/04/03 08:06:13;;;;;;;7.67;2.00;;;15.40;88.30;;;;;;5055576;28;20233;-60
2024/04/03 08:08:41;;;;;;;5.23;2.40;;;15.40;88.10;;;;;;5013505;28;20203;-60
2024/04/03 08:11:08;;;;;;;9.87;2.53;;;15.40;87.70;;;;;;5035909;28;20533;-59
2024/04/03 08:13:35;;;;;;;8.40;1.73;;;15.40;87.90;;;;;;5051971;28;20219;-59
2024/04/03 08:16:03;;;;;;;7.23;1.80;;;15.50;88.40;;;;;;5033288;28;20206;-60
2024/04/03 08:18:32;;;;;;;4.10;1.67;;;15.50;88.80;;;;;;5031152;28;20213;-60
2024/04/03 08:21:06;;;;;;;3.43;1.50;;;15.60;88.90;;;;;;5023287;28;20223;-60
2024/04/03 08:23:33;;;;;;;6.57;1.90;;;15.60;89.10;;;;;;5017113;28;20204;-60
2024/04/03 08:26:08;;;;;;;9.97;2.47;;;15.70;89.10;;;;;;5019812;28;20216;-59
2024/04/03 08:28:37;;;;;;;11.67;2.00;;;15.70;89.20;;;;;;5030959;28;20571;-59
2024/04/03 08:31:11;;;;;;;9.30;1.93;;;15.70;88.90;;;;;;5019917;28;20222;-61
2024/04/03 08:33:38;;;;;;;7.60;1.70;;;15.70;88.50;;;;;;5028970;28;20222;-59
2024/04/03 08:36:07;;;;;;;6.00;2.17;;;15.70;88.10;;;;;;5006862;28;20559;-59
2024/04/03 08:38:34;;;;;;;9.10;1.97;;;15.70;87.60;;;;;;5043410;28;20211;-59
2024/04/03 08:41:02;;;;;;;5.13;2.23;;;15.80;87.60;;;;;;5032824;28;20223;-60
2024/04/03 08:43:29;;;;;;;7.77;1.93;;;15.80;87.70;;;;;;5024215;28;20200;-59
2024/04/03 08:45:57;;;;;;;10.63;1.90;;;15.80;87.00;;;;;;5041907;28;20205;-59
2024/04/03 08:48:25;;;;;;;9.17;1.80;;;15.80;87.00;;;;;;5025318;28;20530;-59
2024/04/03 08:50:56;;;;;;;7.80;1.87;;;15.80;86.40;;;;;;5036264;28;20210;-59
2024/04/03 08:53:24;;;;;;;3.27;1.27;;;15.80;86.20;;;;;;5036038;28;20550;-59
2024/04/03 08:55:55;;;;;;;6.70;1.73;;;15.80;85.60;;;;;;5013091;28;20660;-59
2024/04/03 08:58:23;;;;;;;12.17;2.03;;;15.80;85.20;;;;;;5038868;28;20257;-59
2024/04/03 09:00:50;;;;;;;6.20;1.67;;;15.80;85.00;;;;;;5043356;28;20246;-59
2024/04/03 09:03:19;;;;;;;5.73;2.27;;;15.80;84.80;;;;;;5040440;28;20192;-59
2024/04/03 09:05:49;;;;;;;3.47;1.97;;;15.80;84.70;;;;;;5036460;28;20201;-60
2024/04/03 09:08:17;;;;;;;8.50;2.20;;;15.80;85.00;;;;;;5010350;28;21044;-60
2024/04/03 09:10:49;;;;;;;2.93;1.50;;;15.80;85.10;;;;;;5036669;28;20204;-60
2024/04/03 09:13:18;;;;;;;7.93;1.63;;;15.80;85.50;;;;;;5027558;28;20215;-60
2024/04/03 09:15:45;;;;;;;4.80;1.30;;;15.80;85.50;;;;;;5058474;28;20202;-60
2024/04/03 09:18:14;;;;;;;5.90;2.03;;;15.90;85.60;;;;;;5028000;28;20207;-60
2024/04/03 09:20:41;;;;;;;8.37;2.00;;;15.90;86.00;;;;;;5043402;28;20228;-60
2024/04/03 09:23:09;;;;;;;4.30;1.60;;;15.90;86.20;;;;;;5010204;28;20640;-59
2024/04/03 09:25:38;;;;;;;2.70;1.23;;;15.90;86.20;;;;;;5022237;28;20295;-59
2024/04/03 09:28:09;;;;;;;4.40;1.80;;;15.90;86.00;;;;;;5034263;28;20213;-60
2024/04/03 09:30:40;;;;;;;5.70;1.40;;;15.90;86.00;;;;;;5026579;28;20200;-60
2024/04/03 09:33:07;;;;;;;3.50;1.50;;;15.90;86.50;;;;;;5037128;28;20202;-60
2024/04/03 09:35:35;;;;;;;8.23;1.83;;;15.90;87.00;;;;;;5020297;28;20576;-59
2024/04/03 09:38:03;;;;;;;8.77;1.43;;;15.90;87.50;;;;;;5007369;28;20596;-59
2024/04/03 09:40:32;;;;;;;3.77;1.47;;;15.90;87.50;;;;;;5040798;28;20203;-59
2024/04/03 09:43:03;;;;;;;5.70;1.57;;;16.00;87.60;;;;;;5025081;28;20224;-60
2024/04/03 09:45:30;;;;;;;5.07;1.63;;;16.00;87.90;;;;;;5001978;28;20195;-60
2024/04/03 09:48:03;;;;;;;8.43;1.80;;;16.10;88.00;;;;;;5032305;28;20208;-59
2024/04/03 09:50:44;;;;;;;5.53;1.60;;;16.10;88.00;;;;;;5056258;28;20652;-60
2024/04/03 09:53:19;;;;;;;6.27;1.57;;;16.20;87.60;;;;;;5051586;28;20191;-59
2024/04/03 09:55:49;;;;;;;13.17;1.93;;;16.30;86.70;;;;;;5071035;28;20279;-60
2024/04/03 09:58:19;;;;;;;7.63;2.33;;;16.30;85.70;;;;;;5033527;28;20193;-61
2024/04/03 10:00:54;;;;;;;7.97;1.53;;;16.40;84.70;;;;;;5031800;28;20663;-60
2024/04/03 10:03:29;;;;;;;4.63;1.77;;;16.50;84.40;;;;;;5019946;28;20192;-61
2024/04/03 10:06:29;;;;;;;7.00;1.80;;;16.60;84.10;;;;;;5004826;28;20223;-60
2024/04/03 10:08:55;;;;;;;5.43;2.03;;;16.80;83.80;;;;;;5002244;28;20597;-61
2024/04/03 10:11:21;;;;;;;10.93;2.10;;;16.80;83.20;;;;;;5031263;28;20206;-60
2024/04/03 10:13:50;;;;;;;13.60;1.80;;;16.90;81.40;;;;;;5040070;28;20209;-60
2024/04/03 10:16:16;;;;;;;6.47;2.03;;;16.90;81.50;;;;;;5043906;28;20206;-60
2024/04/03 10:18:52;;;;;;;9.23;1.80;;;16.80;81.70;;;;;;5035153;28;20537;-60
2024/04/03 10:21:21;;;;;;;5.70;1.60;;;16.80;81.60;;;;;;5021791;28;20207;-60
2024/04/03 10:23:49;;;;;;;11.40;1.70;;;16.80;82.10;;;;;;5005256;28;20207;-61
2024/04/03 10:26:17;;;;;;;6.90;1.63;;;16.80;83.00;;;;;;5040315;28;20199;-60
2024/04/03 10:28:45;;;;;;;3.00;1.70;;;16.80;82.40;;;;;;5036193;28;20326;-61
2024/04/03 10:31:18;;;;;;;3.40;1.37;;;16.90;81.40;;;;;;5019506;28;20283;-61
2024/04/03 10:33:48;;;;;;;3.07;1.27;;;16.90;79.40;;;;;;5037600;28;20241;-61
2024/04/03 10:36:18;;;;;;;2.63;1.10;;;16.90;80.50;;;;;;5043155;28;20207;-60
2024/04/03 10:38:45;;;;;;;2.83;1.20;;;17.00;80.50;;;;;;5039196;28;20216;-60
2024/04/03 10:41:12;;;;;;;4.33;1.20;;;17.10;80.00;;;;;;5010231;28;20230;-60
2024/04/03 10:43:38;;;;;;;4.17;1.73;;;17.20;79.90;;;;;;5032407;28;20210;-61
2024/04/03 10:46:10;;;;;;;4.43;1.40;;;17.30;80.00;;;;;;5034404;28;20657;-60
2024/04/03 10:48:45;;;;;;;8.63;1.30;;;17.40;80.60;;;;;;5054346;28;20510;-61
2024/04/03 10:51:11;;;;;;;6.03;1.20;;;17.50;81.10;;;;;;5046520;28;20245;-61
2024/04/03 10:53:38;;;;;;;4.47;1.57;;;17.70;79.40;;;;;;5011833;28;20213;-61
2024/04/03 10:56:05;;;;;;;9.77;2.00;;;17.90;79.40;;;;;;5005921;28;20299;-60
2024/04/03 10:58:31;;;;;;;5.07;1.57;;;18.10;79.50;;;;;;5023897;28;20630;-61
2024/04/03 11:00:58;;;;;;;4.43;1.43;;;18.30;78.80;;;;;;5041056;28;21000;-61
2024/04/03 11:03:25;;;;;;;4.17;1.30;;;18.40;78.00;;;;;;5032853;28;20539;-61
2024/04/03 11:05:52;;;;;;;4.37;1.87;;;18.40;77.60;;;;;;5017356;28;20213;-61
2024/04/03 11:08:21;;;;;;;7.40;1.93;;;18.50;78.40;;;;;;5036513;28;20202;-61
2024/04/03 11:10:48;;;;;;;3.63;1.37;;;18.60;77.50;;;;;;5038400;28;20210;-61
2024/04/03 11:13:18;;;;;;;8.93;1.90;;;18.60;76.00;;;;;;5042196;28;20197;-61
2024/04/03 11:15:52;;;;;;;5.27;2.03;;;18.70;76.00;;;;;;5024052;28;20209;-61
2024/04/03 11:18:18;;;;;;;4.90;1.73;;;18.80;76.90;;;;;;5022888;28;20217;-61
2024/04/03 11:20:44;;;;;;;7.40;1.90;;;18.90;77.20;;;;;;5038282;28;20202;-61
2024/04/03 11:23:11;;;;;;;6.00;2.10;;;19.00;77.60;;;;;;5030381;28;20198;-61
2024/04/03 11:25:39;;;;;;;3.90;1.03;;;19.00;76.00;;;;;;5018023;28;20229;-61
2024/04/03 11:28:05;;;;;;;5.70;2.50;;;19.10;74.00;;;;;;5022162;28;20210;-61
2024/04/03 11:30:33;;;;;;;4.87;1.20;;;19.10;74.70;;;;;;5037552;28;20268;-61
2024/04/03 11:32:59;;;;;;;6.27;1.70;;;19.20;73.60;;;;;;5032716;28;20280;-61
2024/04/03 11:35:26;;;;;;;2.20;1.20;;;19.20;72.30;;;;;;5027424;28;20329;-61
2024/04/03 11:37:53;;;;;;;9.07;1.80;;;19.30;72.50;;;;;;5020323;28;20190;-61
2024/04/03 11:40:19;;;;;;;7.30;1.90;;;19.20;71.80;;;;;;5031922;28;20252;-61
2024/04/03 11:42:46;;;;;;;9.33;2.60;;;19.30;72.20;;;;;;5037664;28;20249;-61
2024/04/03 11:45:15;;;;;;;4.57;1.47;;;19.30;70.30;;;;;;5020514;28;20233;-61
2024/04/03 11:47:41;;;;;;;6.60;1.67;;;19.40;70.40;;;;;;5028265;28;20199;-61
2024/04/03 11:50:08;;;;;;;2.77;1.30;;;19.40;68.80;;;;;;5035282;28;20209;-61
2024/04/03 11:52:34;;;;;;;8.10;1.47;;;19.40;67.60;;;;;;5040702;28;20210;-61
2024/04/03 11:55:00;;;;;;;2.03;1.13;;;19.40;69.90;;;;;;5039609;28;20257;-60
2024/04/03 11:57:27;;;;;;;3.60;1.30;;;19.50;71.50;;;;;;5040467;28;20203;-60
2024/04/03 11:59:55;;;;;;;5.63;1.77;;;19.70;70.80;;;;;;5037249;28;20304;-61
2024/04/03 12:02:23;;;;;;;4.80;1.57;;;19.80;70.60;;;;;;5016669;28;20219;-61
2024/04/03 12:04:50;;;;;;;6.87;1.37;;;19.80;70.60;;;;;;5039606;28;20236;-61
2024/04/03 12:07:19;;;;;;;5.83;0.97;;;19.90;69.90;;;;;;5036776;28;20687;-60
2024/04/03 12:09:46;;;;;;;5.97;1.40;;;19.90;68.10;;;;;;5000878;28;20211;-60
2024/04/03 12:12:12;;;;;;;6.20;1.00;;;19.90;66.10;;;;;;5040302;28;20216;-61
2024/04/03 12:14:39;;;;;;;2.87;1.00;;;19.90;66.60;;;;;;5036057;28;20215;-61
2024/04/03 12:17:07;;;;;;;2.57;1.03;;;20.00;66.60;;;;;;4997699;28;20257;-61
2024/04/03 12:20:03;;;;;;;3.93;0.97;;;20.00;66.10;;;;;;5031668;28;20251;-60
2024/04/03 12:22:30;;;;;;;2.57;0.83;;;19.90;65.30;;;;;;5037869;28;20211;-61
2024/04/03 12:24:57;;;;;;;2.77;0.80;;;19.90;64.50;;;;;;5009236;28;20310;-61
2024/04/03 12:27:25;;;;;;;4.70;1.20;;;19.80;65.70;;;;;;5029100;28;20301;-61
2024/04/03 12:29:52;;;;;;;3.27;0.90;;;19.80;66.10;;;;;;5005985;28;20621;-61
2024/04/03 12:32:19;;;;;;;4.47;1.20;;;19.80;67.20;;;;;;5043300;28;20225;-61
2024/04/03 12:34:47;;;;;;;3.10;0.90;;;19.90;67.40;;;;;;5024179;28;20206;-61
2024/04/03 12:37:15;;;;;;;2.17;0.80;;;19.90;66.80;;;;;;5052450;28;20211;-61
2024/04/03 12:39:42;;;;;;;2.57;1.07;;;20.00;63.40;;;;;;5042436;28;20580;-61
2024/04/03 12:42:10;;;;;;;2.87;0.90;;;20.00;61.40;;;;;;5016377;28;20231;-61
2024/04/03 12:44:37;;;;;;;2.50;0.70;;;20.00;61.30;;;;;;5035553;28;20253;-61
2024/04/03 12:47:06;;;;;;;2.50;1.10;;;20.00;62.10;;;;;;5032191;28;20195;-61
2024/04/03 12:49:33;;;;;;;3.53;1.20;;;20.00;62.50;;;;;;5039820;28;20203;-60
2024/04/03 12:52:00;;;;;;;5.03;1.20;;;20.10;61.50;;;;;;5028031;28;20304;-61